Time;durP1;ratioP1;P1;durP2;ratioP2;P2;SDS_P1;SDS_P2;PMS_P1;PMS_P2;Temp;Humidity;BMP_temperature;BMP_pressure;BME280_temperature;BME280_humidity;BME280_pressure;Samples;Min_cycle;Max_cycle;Signal;HPM_P1;HPM_P2
2022/05/18 00:02:25;;;;;;;4.47;3.30;;;19.00;99.90;;;;;;5046368;28;20435;-73
2022/05/18 00:04:51;;;;;;;3.50;3.00;;;18.90;99.90;;;;;;5028171;28;20492;-73
2022/05/18 00:07:16;;;;;;;3.57;3.20;;;18.80;99.90;;;;;;5045305;28;20460;-73
2022/05/18 00:09:42;;;;;;;3.27;2.97;;;18.70;99.90;;;;;;5046108;28;20213;-73
2022/05/18 00:12:09;;;;;;;3.40;3.10;;;18.70;99.90;;;;;;5045700;28;20289;-73
2022/05/18 00:14:35;;;;;;;5.33;2.93;;;18.70;99.90;;;;;;5045977;28;20417;-72
2022/05/18 00:17:03;;;;;;;3.80;3.40;;;18.50;99.90;;;;;;5045827;28;20932;-73
2022/05/18 00:19:32;;;;;;;3.73;3.43;;;18.50;99.90;;;;;;5045934;28;20451;-72
2022/05/18 00:21:57;;;;;;;3.20;3.00;;;18.50;99.90;;;;;;5044778;28;20461;-72
2022/05/18 00:24:23;;;;;;;4.43;2.97;;;18.40;99.90;;;;;;5045281;28;20479;-72
2022/05/18 00:26:49;;;;;;;3.70;3.40;;;18.30;99.90;;;;;;5045868;28;20577;-73
2022/05/18 00:29:15;;;;;;;4.63;3.50;;;18.20;99.90;;;;;;5045358;28;20682;-72
2022/05/18 00:31:41;;;;;;;4.30;3.43;;;18.10;99.90;;;;;;5027180;28;20301;-72
2022/05/18 00:34:08;;;;;;;3.80;3.50;;;18.10;99.90;;;;;;5027171;28;20492;-73
2022/05/18 00:36:34;;;;;;;5.10;3.33;;;18.10;99.90;;;;;;5045715;28;20189;-73
2022/05/18 00:39:00;;;;;;;4.50;3.63;;;18.00;99.90;;;;;;5044938;28;20449;-72
2022/05/18 00:41:27;;;;;;;3.30;3.10;;;18.10;99.90;;;;;;5045707;28;20448;-72
2022/05/18 00:43:54;;;;;;;3.80;3.50;;;18.20;99.90;;;;;;5026179;28;20208;-72
2022/05/18 00:46:21;;;;;;;4.40;3.97;;;18.30;99.90;;;;;;5045193;28;20440;-72
2022/05/18 00:48:47;;;;;;;3.67;3.37;;;18.40;99.90;;;;;;5045591;28;20417;-73
2022/05/18 00:51:24;;;;;;;4.10;3.70;;;18.50;99.90;;;;;;5045310;28;20434;-72
2022/05/18 00:53:53;;;;;;;3.93;3.53;;;18.50;99.90;;;;;;5045341;28;20409;-73
2022/05/18 00:56:27;;;;;;;4.60;3.17;;;18.50;99.90;;;;;;5045592;28;20413;-72
2022/05/18 00:58:58;;;;;;;4.50;3.50;;;18.50;99.90;;;;;;5045181;28;20566;-72
2022/05/18 01:01:24;;;;;;;4.17;3.70;;;18.50;99.90;;;;;;5044956;28;20415;-72
2022/05/18 01:03:52;;;;;;;3.43;3.13;;;18.60;99.90;;;;;;5045409;28;20538;-72
2022/05/18 01:06:34;;;;;;;4.13;2.97;;;18.50;99.90;;;;;;5027391;28;20444;-72
2022/05/18 01:09:06;;;;;;;4.07;3.37;;;18.50;99.90;;;;;;5044930;28;20401;-73
2022/05/18 01:11:34;;;;;;;4.20;3.80;;;18.30;99.90;;;;;;5044820;28;20791;-72
2022/05/18 01:14:00;;;;;;;5.03;3.80;;;18.30;99.90;;;;;;5044393;28;20458;-73
2022/05/18 01:16:28;;;;;;;4.30;3.90;;;18.30;99.90;;;;;;5044801;28;20417;-73
2022/05/18 01:18:55;;;;;;;4.40;3.50;;;18.20;99.90;;;;;;5044775;28;20420;-72
2022/05/18 01:21:26;;;;;;;5.13;4.03;;;18.20;99.90;;;;;;5044819;28;20497;-72
2022/05/18 01:24:00;;;;;;;5.30;3.77;;;18.10;99.90;;;;;;5065131;22;21537;-74
2022/05/18 01:26:40;;;;;;;3.97;3.57;;;18.10;99.90;;;;;;5045010;28;20408;-75
2022/05/18 01:29:06;;;;;;;4.40;4.00;;;18.00;99.90;;;;;;5029039;28;20400;-74
2022/05/18 01:31:56;;;;;;;3.40;3.10;;;17.90;99.90;;;;;;5028286;28;20429;-73
2022/05/18 01:34:26;;;;;;;4.97;3.93;;;17.90;99.90;;;;;;5032966;28;20432;-75
2022/05/18 01:36:52;;;;;;;4.10;3.70;;;18.10;99.90;;;;;;5054444;28;20955;-75
2022/05/18 01:39:36;;;;;;;5.13;4.07;;;18.20;99.90;;;;;;5038109;28;20424;-74
2022/05/18 01:42:19;;;;;;;5.10;3.90;;;18.30;99.90;;;;;;5053670;28;20409;-73
2022/05/18 01:44:45;;;;;;;6.00;4.73;;;18.30;99.90;;;;;;5050116;28;20534;-74
2022/05/18 01:47:10;;;;;;;3.80;3.50;;;18.30;99.90;;;;;;5050047;28;20828;-74
2022/05/18 01:49:39;;;;;;;5.23;3.87;;;18.30;99.90;;;;;;5055272;28;20609;-74
2022/05/18 01:52:06;;;;;;;5.33;4.37;;;18.30;99.90;;;;;;5056185;28;20178;-74
2022/05/18 01:54:37;;;;;;;4.47;4.07;;;18.20;99.90;;;;;;5060127;28;20417;-74
2022/05/18 01:57:03;;;;;;;7.00;4.53;;;18.20;99.90;;;;;;5050526;28;20405;-73
2022/05/18 01:59:29;;;;;;;4.40;4.00;;;18.10;99.90;;;;;;5059281;28;20427;-72
2022/05/18 02:01:54;;;;;;;4.80;4.10;;;18.00;99.90;;;;;;5055954;28;20417;-74
2022/05/18 02:04:20;;;;;;;4.53;4.10;;;18.00;99.90;;;;;;5052906;28;20240;-72
2022/05/18 02:06:45;;;;;;;4.37;3.77;;;18.00;99.90;;;;;;5055092;28;20170;-75
2022/05/18 02:09:16;;;;;;;4.40;4.00;;;18.00;99.90;;;;;;5052283;28;20193;-72
2022/05/18 02:11:42;;;;;;;5.60;4.47;;;18.00;99.90;;;;;;5054166;28;20162;-74
2022/05/18 02:14:09;;;;;;;4.40;3.90;;;18.00;99.90;;;;;;5059194;28;20522;-74
2022/05/18 02:16:36;;;;;;;5.37;3.90;;;17.90;99.90;;;;;;5056532;28;20189;-74
2022/05/18 02:19:01;;;;;;;5.90;4.30;;;17.90;99.90;;;;;;5056662;28;20407;-72
2022/05/18 02:21:27;;;;;;;5.13;4.70;;;17.90;99.90;;;;;;5036715;28;20573;-75
2022/05/18 02:23:52;;;;;;;5.00;4.50;;;17.80;99.90;;;;;;5055577;28;21101;-72
2022/05/18 02:26:19;;;;;;;4.90;4.20;;;17.90;99.90;;;;;;5053495;28;20183;-75
2022/05/18 02:28:45;;;;;;;4.87;4.37;;;17.80;99.90;;;;;;5059200;28;20249;-74
2022/05/18 02:31:12;;;;;;;4.30;4.00;;;17.80;99.90;;;;;;5060466;28;20494;-74
2022/05/18 02:33:38;;;;;;;4.10;3.80;;;17.90;99.90;;;;;;5063216;28;20434;-75
2022/05/18 02:36:06;;;;;;;4.93;4.50;;;17.90;99.90;;;;;;5056784;28;20805;-73
2022/05/18 02:38:32;;;;;;;4.73;4.00;;;17.90;99.90;;;;;;5061080;28;20749;-72
2022/05/18 02:40:58;;;;;;;4.70;4.30;;;17.90;99.90;;;;;;5054143;28;20423;-75
2022/05/18 02:43:25;;;;;;;4.57;4.17;;;18.00;99.90;;;;;;5060902;28;20455;-73
2022/05/18 02:46:03;;;;;;;5.60;4.37;;;17.90;99.90;;;;;;5058550;28;20405;-74
2022/05/18 02:48:29;;;;;;;4.40;4.00;;;17.70;99.90;;;;;;5053331;28;20404;-75
2022/05/18 02:50:55;;;;;;;4.70;4.30;;;17.60;99.90;;;;;;5062530;28;21220;-72
2022/05/18 02:53:21;;;;;;;5.17;4.40;;;17.50;99.90;;;;;;5061797;28;20755;-73
2022/05/18 02:58:31;;;;;;;5.00;4.60;;;17.40;99.90;;;;;;5055914;28;20178;-73
2022/05/18 03:00:57;;;;;;;4.17;3.77;;;17.40;99.90;;;;;;5035873;28;20431;-73
2022/05/18 03:03:23;;;;;;;8.73;4.70;;;17.30;99.90;;;;;;5047582;28;20983;-72
2022/05/18 03:05:48;;;;;;;4.83;4.30;;;17.20;99.90;;;;;;5047785;28;20261;-74
2022/05/18 03:08:14;;;;;;;7.77;4.73;;;17.10;99.90;;;;;;5044012;28;21318;-73
2022/05/18 03:10:41;;;;;;;4.40;3.80;;;17.10;99.90;;;;;;5048270;28;20205;-74
2022/05/18 03:13:07;;;;;;;5.83;4.60;;;17.00;99.90;;;;;;5045425;28;20697;-75
2022/05/18 03:15:33;;;;;;;4.13;3.80;;;17.00;99.90;;;;;;5055783;28;20408;-75
2022/05/18 03:17:59;;;;;;;5.70;4.17;;;17.00;99.90;;;;;;5044811;28;20174;-75
2022/05/18 03:25:53;;;;;;;5.90;5.40;;;16.90;99.90;;;;;;5058233;28;20398;-73
2022/05/18 03:28:19;;;;;;;5.13;4.60;;;17.00;99.90;;;;;;5062369;28;20404;-75
2022/05/18 03:30:45;;;;;;;5.63;4.63;;;16.90;99.90;;;;;;5050695;28;20646;-72
2022/05/18 03:33:10;;;;;;;5.70;5.17;;;16.90;99.90;;;;;;5048915;28;20241;-74
2022/05/18 03:35:36;;;;;;;4.63;4.20;;;16.80;99.90;;;;;;5052556;28;20185;-74
2022/05/18 03:38:05;;;;;;;5.00;4.50;;;16.90;99.90;;;;;;5064029;28;20181;-75
2022/05/18 03:40:38;;;;;;;5.17;4.57;;;17.10;99.90;;;;;;5052883;28;20177;-75
2022/05/18 03:43:04;;;;;;;5.20;4.70;;;17.20;99.90;;;;;;5050249;28;20435;-73
2022/05/18 03:45:33;;;;;;;6.33;4.20;;;17.30;99.90;;;;;;5052663;28;20503;-75
2022/05/18 03:47:59;;;;;;;8.53;4.67;;;17.30;99.90;;;;;;5051791;28;20957;-74
2022/05/18 03:50:28;;;;;;;5.60;4.27;;;17.40;99.90;;;;;;5055283;28;20412;-72
2022/05/18 03:52:55;;;;;;;5.33;4.83;;;17.40;99.90;;;;;;5066592;28;20423;-74
2022/05/18 03:55:21;;;;;;;5.63;4.93;;;17.40;99.90;;;;;;5048474;28;20414;-74
2022/05/18 03:57:46;;;;;;;5.20;4.70;;;17.40;99.90;;;;;;5066432;28;20419;-73
2022/05/18 04:00:13;;;;;;;6.53;4.80;;;17.40;99.90;;;;;;5050110;28;20406;-74
2022/05/18 04:02:40;;;;;;;7.30;4.40;;;17.40;99.90;;;;;;5027294;28;20574;-75
2022/05/18 04:05:09;;;;;;;5.60;5.00;;;17.40;99.90;;;;;;5058340;28;21573;-72
2022/05/18 04:07:35;;;;;;;6.23;3.87;;;17.30;99.90;;;;;;5036680;28;20961;-75
2022/05/18 04:10:01;;;;;;;4.80;4.40;;;17.20;99.90;;;;;;5052305;28;20423;-75
2022/05/18 04:12:27;;;;;;;4.17;3.83;;;17.30;99.90;;;;;;5056052;28;20858;-73
2022/05/18 04:14:54;;;;;;;4.50;4.10;;;17.40;99.90;;;;;;5051297;28;20499;-75
2022/05/18 04:17:24;;;;;;;5.10;4.60;;;17.40;99.90;;;;;;5063615;28;20174;-74
2022/05/18 04:19:49;;;;;;;5.47;4.87;;;17.40;99.90;;;;;;5051663;28;20424;-73
2022/05/18 04:22:15;;;;;;;6.70;4.93;;;17.40;99.90;;;;;;5055856;28;20442;-74
2022/05/18 04:24:41;;;;;;;5.93;5.33;;;17.30;99.90;;;;;;5057372;28;20224;-73
2022/05/18 04:27:07;;;;;;;5.53;5.03;;;17.20;99.90;;;;;;5029436;28;20542;-73
2022/05/18 04:29:33;;;;;;;5.70;5.20;;;17.30;99.90;;;;;;5060423;28;20227;-73
2022/05/18 04:31:59;;;;;;;8.50;7.67;;;17.20;99.90;;;;;;5060785;28;20588;-73
2022/05/18 04:34:26;;;;;;;6.73;6.10;;;17.30;99.90;;;;;;5060590;28;20470;-73
2022/05/18 04:36:52;;;;;;;6.60;5.20;;;17.20;99.90;;;;;;5058064;28;20185;-71
2022/05/18 04:39:17;;;;;;;6.50;6.00;;;17.30;99.90;;;;;;5053582;28;20424;-73
2022/05/18 04:41:43;;;;;;;6.33;5.73;;;17.40;99.90;;;;;;5051734;28;20412;-73
2022/05/18 04:44:09;;;;;;;8.67;5.30;;;17.50;99.90;;;;;;5053187;28;20219;-73
2022/05/18 04:46:35;;;;;;;5.57;5.03;;;17.50;99.90;;;;;;5052528;28;20181;-72
2022/05/18 04:49:00;;;;;;;6.97;5.70;;;17.40;99.90;;;;;;5065232;28;20427;-74
2022/05/18 04:51:26;;;;;;;5.40;4.90;;;17.40;99.90;;;;;;5065254;28;20209;-72
2022/05/18 04:53:52;;;;;;;5.87;5.30;;;17.40;99.90;;;;;;5046627;28;20201;-73
2022/05/18 04:56:17;;;;;;;6.13;5.57;;;17.40;99.90;;;;;;5051831;28;20653;-73
2022/05/18 04:58:43;;;;;;;5.43;4.93;;;17.50;99.90;;;;;;5048030;28;20191;-74
2022/05/18 05:01:10;;;;;;;4.43;4.10;;;17.50;99.90;;;;;;5045706;28;20182;-73
2022/05/18 05:03:37;;;;;;;6.00;5.03;;;17.60;99.90;;;;;;5052433;28;20720;-73
2022/05/18 05:06:04;;;;;;;5.33;4.90;;;17.70;99.90;;;;;;5052672;28;20823;-74
2022/05/18 05:08:34;;;;;;;5.80;5.30;;;17.70;99.90;;;;;;5057035;28;20422;-75
2022/05/18 05:11:00;;;;;;;5.80;4.93;;;17.70;99.90;;;;;;5050466;28;20787;-73
2022/05/18 05:13:26;;;;;;;5.37;4.90;;;17.80;99.90;;;;;;5041563;28;20487;-71
2022/05/18 05:16:05;;;;;;;4.83;4.43;;;17.80;99.90;;;;;;5053090;28;20624;-72
2022/05/18 05:18:32;;;;;;;5.23;4.53;;;17.80;99.90;;;;;;5061926;28;20757;-73
2022/05/18 05:20:58;;;;;;;5.50;5.00;;;18.00;99.90;;;;;;5062784;28;20427;-73
2022/05/18 05:23:24;;;;;;;4.93;4.53;;;18.10;99.90;;;;;;5065861;28;20486;-74
2022/05/18 05:25:54;;;;;;;4.50;4.10;;;18.20;99.90;;;;;;5036584;28;20452;-74
2022/05/18 05:28:20;;;;;;;4.60;3.83;;;18.30;99.90;;;;;;5056849;28;20911;-74
2022/05/18 05:30:46;;;;;;;5.60;4.10;;;18.40;99.90;;;;;;5058298;28;20497;-73
2022/05/18 05:33:12;;;;;;;5.07;4.57;;;18.60;99.90;;;;;;5058633;28;20447;-74
2022/05/18 05:35:41;;;;;;;4.80;4.10;;;18.70;99.90;;;;;;5053683;28;21293;-73
2022/05/18 05:38:10;;;;;;;7.20;4.00;;;18.80;99.90;;;;;;5051043;28;20409;-73
2022/05/18 05:40:37;;;;;;;3.97;3.67;;;18.90;99.90;;;;;;5054408;28;20416;-71
2022/05/18 05:43:10;;;;;;;5.83;4.07;;;19.00;99.90;;;;;;5053909;28;20444;-73
2022/05/18 05:45:37;;;;;;;6.60;4.23;;;19.20;99.90;;;;;;5050638;28;20420;-71
2022/05/18 05:48:04;;;;;;;5.00;4.60;;;19.30;99.90;;;;;;5044525;28;20452;-74
2022/05/18 05:50:32;;;;;;;6.03;4.97;;;19.40;99.90;;;;;;5048552;28;20466;-74
2022/05/18 05:52:59;;;;;;;4.67;3.97;;;19.50;99.90;;;;;;5031242;28;20515;-73
2022/05/18 05:55:25;;;;;;;6.13;4.87;;;19.60;99.90;;;;;;5059014;28;20458;-74
2022/05/18 05:57:57;;;;;;;4.80;4.20;;;19.70;99.90;;;;;;5043018;28;20461;-73
2022/05/18 06:00:24;;;;;;;4.97;4.40;;;19.80;99.90;;;;;;5036770;28;20464;-76
2022/05/18 06:02:50;;;;;;;5.23;4.57;;;19.90;99.90;;;;;;5055674;28;20467;-75
2022/05/18 06:05:17;;;;;;;5.43;4.77;;;20.10;99.90;;;;;;5046299;28;20460;-75
2022/05/18 06:07:43;;;;;;;5.20;4.20;;;20.30;99.90;;;;;;5058857;28;20986;-73
2022/05/18 06:10:09;;;;;;;5.30;4.80;;;20.40;99.90;;;;;;5064047;28;20424;-72
2022/05/18 06:12:36;;;;;;;6.33;5.00;;;20.60;99.90;;;;;;5053799;28;20251;-73
2022/05/18 06:15:02;;;;;;;8.30;5.13;;;20.70;99.90;;;;;;5053375;28;20413;-74
2022/05/18 06:17:28;;;;;;;8.17;5.40;;;20.80;99.90;;;;;;5050813;28;20772;-75
2022/05/18 06:19:53;;;;;;;6.57;5.10;;;20.90;99.90;;;;;;5064071;28;20419;-73
2022/05/18 06:22:19;;;;;;;5.60;5.00;;;21.00;99.90;;;;;;5031378;28;20285;-71
2022/05/18 06:24:47;;;;;;;5.50;4.50;;;21.10;99.90;;;;;;5043702;28;20201;-74
2022/05/18 06:27:14;;;;;;;6.90;4.90;;;21.20;99.90;;;;;;5043380;28;20171;-74
2022/05/18 06:29:39;;;;;;;6.33;4.97;;;21.30;99.90;;;;;;5043610;28;20423;-71
2022/05/18 06:32:06;;;;;;;5.87;5.20;;;21.40;99.90;;;;;;5056165;28;20963;-74
2022/05/18 06:34:32;;;;;;;6.43;5.00;;;21.60;99.90;;;;;;5042860;28;20208;-70
2022/05/18 06:36:57;;;;;;;4.70;4.30;;;21.60;99.90;;;;;;5058718;28;20420;-74
2022/05/18 06:39:23;;;;;;;6.07;5.10;;;21.70;99.90;;;;;;5050188;28;20197;-73
2022/05/18 06:41:49;;;;;;;6.03;4.97;;;21.80;99.90;;;;;;5056249;28;20210;-73
2022/05/18 06:44:16;;;;;;;7.40;5.37;;;21.90;99.90;;;;;;5043629;28;20285;-73
2022/05/18 06:46:41;;;;;;;7.30;5.63;;;21.90;99.90;;;;;;5062444;28;20415;-71
2022/05/18 06:49:11;;;;;;;7.40;5.83;;;21.90;99.90;;;;;;5045908;28;20409;-74
2022/05/18 06:51:42;;;;;;;5.77;5.13;;;21.80;99.90;;;;;;5053845;28;20174;-73
2022/05/18 06:54:10;;;;;;;6.50;5.37;;;21.90;99.90;;;;;;5032085;28;20449;-75
2022/05/18 06:56:38;;;;;;;8.37;5.30;;;21.80;99.90;;;;;;5055358;28;20401;-74
2022/05/18 06:59:05;;;;;;;8.03;5.87;;;22.10;99.90;;;;;;5043289;28;20440;-72
2022/05/18 07:01:30;;;;;;;8.10;4.70;;;22.20;99.90;;;;;;5043677;28;20409;-74
2022/05/18 07:03:57;;;;;;;7.00;4.63;;;22.20;99.90;;;;;;5057878;28;20464;-73
2022/05/18 07:06:25;;;;;;;8.50;4.10;;;22.30;99.90;;;;;;5056660;28;20317;-71
2022/05/18 07:08:51;;;;;;;5.60;4.33;;;22.40;99.90;;;;;;5052648;28;20412;-74
2022/05/18 07:11:18;;;;;;;7.10;4.10;;;22.30;99.90;;;;;;5065416;28;20487;-73
2022/05/18 07:13:46;;;;;;;5.73;3.37;;;22.60;99.90;;;;;;5067121;28;20431;-72
2022/05/18 07:16:12;;;;;;;4.37;3.27;;;22.60;99.90;;;;;;5034058;28;20423;-73
2022/05/18 07:18:37;;;;;;;3.57;3.20;;;22.70;99.90;;;;;;5047173;28;20417;-74
2022/05/18 07:21:05;;;;;;;3.50;3.20;;;22.80;99.90;;;;;;5057567;28;20228;-73
2022/05/18 07:23:31;;;;;;;4.30;3.90;;;22.70;99.90;;;;;;5045875;28;20317;-75
2022/05/18 07:25:58;;;;;;;3.70;2.83;;;22.80;99.90;;;;;;5047111;28;20873;-72
2022/05/18 07:28:24;;;;;;;4.97;3.90;;;22.70;99.90;;;;;;5060312;28;20197;-74
2022/05/18 07:30:51;;;;;;;4.43;3.37;;;22.80;99.90;;;;;;5059114;28;20409;-74
2022/05/18 07:33:18;;;;;;;5.20;3.50;;;22.90;99.90;;;;;;5049246;28;20423;-71
2022/05/18 07:35:44;;;;;;;3.57;3.27;;;23.10;99.90;;;;;;5058972;28;20400;-73
2022/05/18 07:38:11;;;;;;;3.57;3.10;;;23.20;99.90;;;;;;5059817;28;20416;-73
2022/05/18 07:40:36;;;;;;;4.47;3.53;;;23.30;99.90;;;;;;5065156;28;20431;-72
2022/05/18 07:43:02;;;;;;;5.20;4.10;;;23.10;99.90;;;;;;5062488;28;20454;-74
2022/05/18 07:45:28;;;;;;;3.63;3.20;;;23.10;99.90;;;;;;5051443;28;20711;-72
2022/05/18 07:47:55;;;;;;;4.23;3.93;;;23.00;99.90;;;;;;5039686;28;20423;-74
2022/05/18 07:50:24;;;;;;;3.97;3.60;;;22.90;99.90;;;;;;5057094;28;20405;-74
2022/05/18 07:52:52;;;;;;;3.30;3.00;;;22.90;99.90;;;;;;5049498;28;20433;-74
2022/05/18 07:55:18;;;;;;;3.93;3.43;;;23.20;99.90;;;;;;5049347;28;20415;-72
2022/05/18 07:57:44;;;;;;;4.10;3.70;;;23.40;99.90;;;;;;5057124;28;20424;-74
2022/05/18 08:00:12;;;;;;;3.70;3.40;;;23.10;99.90;;;;;;5055057;28;20409;-72
2022/05/18 08:02:38;;;;;;;5.80;3.60;;;23.10;99.90;;;;;;5046773;28;20476;-71
2022/05/18 08:05:05;;;;;;;4.23;3.83;;;23.20;99.90;;;;;;5045999;28;20475;-72
2022/05/18 08:07:31;;;;;;;3.93;3.63;;;23.20;99.90;;;;;;5059502;28;20451;-72
2022/05/18 08:15:25;;;;;;;4.60;3.90;;;23.40;99.90;;;;;;5054522;28;20391;-73
2022/05/18 08:17:51;;;;;;;4.50;3.60;;;23.60;99.90;;;;;;5045111;28;20504;-72
2022/05/18 08:20:21;;;;;;;6.20;3.53;;;23.60;99.90;;;;;;5057968;28;20430;-73
2022/05/18 08:22:47;;;;;;;5.30;3.70;;;23.70;99.90;;;;;;5056229;28;20751;-73
2022/05/18 08:25:14;;;;;;;3.83;3.47;;;23.80;99.90;;;;;;5060030;28;20456;-73
2022/05/18 08:27:50;;;;;;;7.00;3.63;;;24.00;99.70;;;;;;5051554;28;20785;-70
2022/05/18 08:30:19;;;;;;;6.93;3.33;;;24.10;99.60;;;;;;5059607;28;20774;-73
2022/05/18 08:32:45;;;;;;;4.20;3.57;;;24.20;99.20;;;;;;5047817;28;20497;-73
2022/05/18 08:35:14;;;;;;;4.73;4.20;;;24.10;98.70;;;;;;5059753;28;20412;-72
2022/05/18 08:37:47;;;;;;;4.60;3.50;;;24.00;99.10;;;;;;5041252;28;20420;-72
2022/05/18 08:40:28;;;;;;;3.63;3.33;;;24.10;99.00;;;;;;5054462;28;20470;-72
2022/05/18 08:42:58;;;;;;;7.40;3.70;;;24.20;98.90;;;;;;5062513;28;20432;-73
2022/05/18 08:45:29;;;;;;;4.67;3.73;;;24.20;98.50;;;;;;5039560;28;20463;-74
2022/05/18 08:48:20;;;;;;;5.17;3.77;;;24.30;98.60;;;;;;5061388;28;20764;-72
2022/05/18 08:50:46;;;;;;;5.10;3.60;;;24.50;98.30;;;;;;5039548;28;20744;-73
2022/05/18 08:53:41;;;;;;;4.70;3.37;;;24.50;98.50;;;;;;5057208;28;20431;-73
2022/05/18 08:56:28;;;;;;;4.50;4.03;;;24.70;98.00;;;;;;5052454;28;20580;-73
2022/05/18 08:58:55;;;;;;;4.93;3.47;;;24.60;98.20;;;;;;5058593;28;20405;-71
2022/05/18 09:01:40;;;;;;;5.30;4.00;;;24.80;97.80;;;;;;5060311;28;20466;-73
2022/05/18 09:04:22;;;;;;;4.73;3.30;;;24.70;97.50;;;;;;5026666;28;20766;-73
2022/05/18 09:06:57;;;;;;;5.13;3.73;;;24.70;97.50;;;;;;5056617;28;20535;-73
2022/05/18 09:12:23;;;;;;;4.27;3.60;;;24.90;97.60;;;;;;5048540;28;20416;-74
2022/05/18 09:14:49;;;;;;;4.73;3.70;;;25.00;97.20;;;;;;5049165;28;20425;-74
2022/05/18 09:17:36;;;;;;;3.77;3.37;;;25.20;97.40;;;;;;5034271;28;20174;-75
2022/05/18 09:20:25;;;;;;;4.70;3.17;;;25.40;96.40;;;;;;5059748;28;20170;-72
2022/05/18 09:22:57;;;;;;;4.93;3.20;;;25.40;96.10;;;;;;5052397;28;20521;-73
2022/05/18 09:25:38;;;;;;;5.87;3.10;;;25.40;96.00;;;;;;5052840;28;20449;-73
2022/05/18 09:28:25;;;;;;;4.13;3.73;;;25.60;95.70;;;;;;5060747;28;20409;-72
2022/05/18 09:31:16;;;;;;;7.13;3.87;;;25.60;95.90;;;;;;5045403;28;20435;-71
2022/05/18 09:33:45;;;;;;;4.47;3.87;;;25.50;96.30;;;;;;5038224;28;20447;-72
2022/05/18 09:36:47;;;;;;;3.50;2.70;;;25.60;96.10;;;;;;5055508;28;20437;-72
2022/05/18 09:39:17;;;;;;;4.23;2.87;;;25.40;93.90;;;;;;5059679;28;20415;-72
2022/05/18 09:41:51;;;;;;;4.40;2.97;;;25.60;94.50;;;;;;5046277;28;20416;-72
2022/05/18 09:44:45;;;;;;;4.30;2.90;;;25.80;94.20;;;;;;5045700;28;20471;-72
2022/05/18 09:47:14;;;;;;;4.50;2.90;;;25.70;93.90;;;;;;5048047;28;21312;-69
2022/05/18 09:49:43;;;;;;;4.90;2.90;;;25.70;93.10;;;;;;5053033;28;20743;-73
2022/05/18 09:52:10;;;;;;;3.00;2.70;;;25.70;92.90;;;;;;5044633;28;20414;-73
2022/05/18 09:54:37;;;;;;;7.90;3.20;;;26.00;91.60;;;;;;5052168;28;20649;-73
2022/05/18 09:57:13;;;;;;;3.20;2.53;;;25.90;91.80;;;;;;5055673;28;20512;-72
2022/05/18 09:59:52;;;;;;;3.83;2.57;;;26.00;91.60;;;;;;5056610;28;20439;-74
2022/05/18 10:07:57;;;;;;;2.97;2.70;;;26.30;92.20;;;;;;5084970;28;20473;-72
2022/05/18 10:10:31;;;;;;;3.80;2.90;;;26.40;91.90;;;;;;5065779;28;20479;-73
2022/05/18 10:12:59;;;;;;;6.43;3.07;;;26.40;92.90;;;;;;5084227;28;20196;-74
2022/05/18 10:15:24;;;;;;;4.47;2.30;;;26.60;91.40;;;;;;5084210;28;20415;-74
2022/05/18 10:18:00;;;;;;;2.70;2.50;;;26.70;88.70;;;;;;5083578;28;20851;-73
2022/05/18 10:20:35;;;;;;;3.63;2.67;;;26.90;88.30;;;;;;5084401;28;20176;-74
2022/05/18 10:23:02;;;;;;;2.50;2.30;;;26.90;87.30;;;;;;5083491;28;20437;-74
2022/05/18 10:25:40;;;;;;;2.50;2.30;;;27.10;88.00;;;;;;5082022;28;20481;-74
2022/05/18 10:28:21;;;;;;;3.47;2.40;;;27.20;85.40;;;;;;5084411;28;20395;-73
2022/05/18 10:31:05;;;;;;;3.27;2.97;;;27.20;85.80;;;;;;5065935;28;20757;-74
2022/05/18 10:33:38;;;;;;;3.50;2.60;;;27.00;86.70;;;;;;5083926;28;20438;-72
2022/05/18 10:36:15;;;;;;;4.57;2.47;;;26.80;88.80;;;;;;5083506;28;20419;-71
2022/05/18 10:38:57;;;;;;;8.70;2.87;;;27.10;87.30;;;;;;5085338;28;20929;-73
2022/05/18 10:41:28;;;;;;;3.00;2.80;;;27.30;87.80;;;;;;5087987;28;20403;-73
2022/05/18 10:44:02;;;;;;;3.17;2.33;;;27.40;84.50;;;;;;5087768;28;20451;-72
2022/05/18 10:46:44;;;;;;;2.90;2.30;;;27.50;83.70;;;;;;5087865;28;20426;-71
2022/05/18 10:49:21;;;;;;;3.93;2.40;;;27.40;83.10;;;;;;5088057;28;20403;-72
2022/05/18 10:51:47;;;;;;;2.73;2.00;;;27.60;83.30;;;;;;5087463;28;20402;-72
2022/05/18 10:54:22;;;;;;;2.40;2.13;;;27.50;76.40;;;;;;5086357;28;20790;-73
2022/05/18 10:56:49;;;;;;;2.47;2.27;;;27.20;80.00;;;;;;5087208;28;20204;-72
2022/05/18 10:59:53;;;;;;;6.70;2.87;;;27.30;79.20;;;;;;5085862;28;20502;-72
2022/05/18 11:02:31;;;;;;;3.00;2.17;;;27.20;80.40;;;;;;5087476;28;20454;-72
2022/05/18 11:05:08;;;;;;;3.10;2.07;;;27.50;81.10;;;;;;5086304;28;20521;-72
2022/05/18 11:07:33;;;;;;;3.33;2.83;;;28.10;80.50;;;;;;5087498;28;20387;-72
2022/05/18 11:09:59;;;;;;;3.17;2.70;;;28.10;79.10;;;;;;5087765;28;20833;-74
2022/05/18 11:12:41;;;;;;;2.90;2.23;;;28.20;81.80;;;;;;5067669;28;20236;-72
2022/05/18 11:15:18;;;;;;;3.20;2.83;;;28.10;79.80;;;;;;5068820;28;20215;-73
2022/05/18 11:17:59;;;;;;;2.77;2.57;;;28.40;85.00;;;;;;5087133;28;20399;-73
2022/05/18 11:20:49;;;;;;;3.67;2.80;;;28.70;79.00;;;;;;5087003;28;20418;-73
2022/05/18 11:23:47;;;;;;;2.73;2.40;;;30.30;78.00;;;;;;5087201;28;20564;-74
2022/05/18 11:26:40;;;;;;;3.20;2.40;;;31.90;69.10;;;;;;5085956;28;20973;-74
2022/05/18 11:29:38;;;;;;;4.93;2.70;;;31.90;70.20;;;;;;5086909;28;20403;-72
2022/05/18 11:32:12;;;;;;;4.10;2.43;;;32.50;64.80;;;;;;5086784;28;20448;-73
2022/05/18 11:34:55;;;;;;;2.70;2.50;;;34.00;63.00;;;;;;5087085;28;20498;-73
2022/05/18 11:38:01;;;;;;;6.80;2.50;;;35.00;57.60;;;;;;5069366;28;20938;-72
2022/05/18 11:40:50;;;;;;;5.17;2.30;;;34.80;55.10;;;;;;5041337;28;20415;-73
2022/05/18 11:43:40;;;;;;;3.30;2.27;;;34.60;57.80;;;;;;5068310;28;20435;-73
2022/05/18 11:46:26;;;;;;;3.10;2.80;;;34.60;57.20;;;;;;5086498;28;20925;-72
2022/05/18 11:49:16;;;;;;;3.03;2.70;;;33.70;55.80;;;;;;5068693;28;20957;-73
2022/05/18 11:52:15;;;;;;;2.60;2.17;;;33.50;56.00;;;;;;5086776;28;20396;-73
2022/05/18 11:54:59;;;;;;;2.30;2.03;;;33.80;54.40;;;;;;5080290;28;20427;-73
2022/05/18 11:57:49;;;;;;;2.70;2.10;;;34.30;53.40;;;;;;5068049;28;20423;-72
2022/05/18 12:00:46;;;;;;;2.33;2.13;;;34.40;52.90;;;;;;5085280;28;20415;-72
2022/05/18 12:03:30;;;;;;;5.65;2.35;;;35.40;52.40;;;;;;5086298;28;20450;-73
2022/05/18 12:06:14;;;;;;;3.07;2.70;;;35.30;52.50;;;;;;5086172;28;20789;-73
2022/05/18 12:09:09;;;;;;;2.77;2.37;;;34.30;54.00;;;;;;5086223;28;20411;-73
2022/05/18 12:11:44;;;;;;;3.27;2.53;;;34.80;51.80;;;;;;4979777;28;20511;-72
2022/05/18 12:14:24;;;;;;;3.40;2.57;;;35.60;50.80;;;;;;5085986;28;20411;-73
2022/05/18 12:17:01;;;;;;;2.77;2.40;;;36.70;49.10;;;;;;5086242;28;20915;-73
2022/05/18 12:20:05;;;;;;;2.57;2.33;;;37.20;49.20;;;;;;5085911;28;20765;-73
2022/05/18 12:22:43;;;;;;;3.33;2.90;;;37.10;47.30;;;;;;5085730;28;20465;-72
2022/05/18 12:25:13;;;;;;;3.03;2.40;;;36.80;48.20;;;;;;5086056;28;20442;-73
2022/05/18 12:27:39;;;;;;;2.90;2.27;;;35.20;50.00;;;;;;5085714;28;20779;-72
2022/05/18 12:30:08;;;;;;;3.20;2.17;;;35.10;51.10;;;;;;5085280;28;20407;-74
2022/05/18 12:32:34;;;;;;;2.43;2.23;;;35.80;48.10;;;;;;5084794;28;20442;-74
2022/05/18 12:35:23;;;;;;;2.60;2.17;;;34.60;50.70;;;;;;5084905;28;20449;-74
2022/05/18 12:37:58;;;;;;;2.43;2.00;;;34.20;49.70;;;;;;5084522;28;20420;-74
2022/05/18 12:40:49;;;;;;;2.63;2.07;;;34.80;49.80;;;;;;5084510;28;20805;-74
2022/05/18 12:43:17;;;;;;;5.60;2.40;;;35.70;48.80;;;;;;5084601;28;20462;-75
2022/05/18 12:45:47;;;;;;;8.63;3.30;;;37.80;47.70;;;;;;5084146;28;20548;-74
2022/05/18 12:48:32;;;;;;;3.10;2.30;;;35.90;46.40;;;;;;5085783;28;20403;-74
2022/05/18 12:51:05;;;;;;;3.80;2.47;;;34.90;48.50;;;;;;5067411;28;20433;-73
2022/05/18 12:53:50;;;;;;;4.37;2.87;;;36.20;48.00;;;;;;5085357;28;20776;-74
2022/05/18 12:56:24;;;;;;;2.67;2.13;;;36.70;47.00;;;;;;5084367;28;21000;-72
2022/05/18 12:59:00;;;;;;;2.10;2.00;;;36.80;46.10;;;;;;5085207;28;20404;-73
2022/05/18 13:01:29;;;;;;;2.83;2.60;;;38.10;45.70;;;;;;5084206;28;20476;-73
2022/05/18 13:04:05;;;;;;;2.67;2.43;;;37.20;44.30;;;;;;5084406;28;20463;-72
2022/05/18 13:06:39;;;;;;;3.33;2.43;;;36.50;46.10;;;;;;5085603;28;20431;-73
2022/05/18 13:09:21;;;;;;;2.33;2.17;;;36.90;46.50;;;;;;5084952;28;20471;-73
2022/05/18 13:12:11;;;;;;;2.60;2.33;;;36.70;44.80;;;;;;5085246;28;20411;-72
2022/05/18 13:15:02;;;;;;;2.43;2.23;;;35.30;47.50;;;;;;5085470;28;20442;-73
2022/05/18 13:18:03;;;;;;;4.77;2.47;;;34.70;47.00;;;;;;5084528;28;20435;-73
2022/05/18 13:21:19;;;;;;;2.93;2.30;;;35.60;46.50;;;;;;5031243;28;20442;-75
2022/05/18 13:24:10;;;;;;;3.43;2.10;;;36.10;47.70;;;;;;4982932;28;20990;-73
2022/05/18 13:26:43;;;;;;;2.60;2.40;;;36.50;45.70;;;;;;4982921;28;20508;-73
2022/05/18 13:29:28;;;;;;;2.80;2.30;;;35.90;45.60;;;;;;5052387;28;20426;-73
2022/05/18 13:32:01;;;;;;;3.27;2.30;;;35.60;47.20;;;;;;5084596;28;20426;-74
2022/05/18 13:34:58;;;;;;;3.60;1.83;;;36.80;46.80;;;;;;5084775;28;20476;-73